sensor_id;sensor_type;location;lat;lon;timestamp;P1;durP1;ratioP1;P2;durP2;ratioP2
47844;SDS011;33605;48.822;8.796;2022-12-26T00:00:29;3.53;;;3.20;;
47844;SDS011;33605;48.822;8.796;2022-12-26T00:02:54;4.07;;;3.27;;
47844;SDS011;33605;48.822;8.796;2022-12-26T00:05:20;2.97;;;2.63;;
47844;SDS011;33605;48.822;8.796;2022-12-26T00:07:45;3.17;;;2.87;;
47844;SDS011;33605;48.822;8.796;2022-12-26T00:10:11;12.03;;;3.23;;
47844;SDS011;33605;48.822;8.796;2022-12-26T00:12:36;4.93;;;3.17;;
47844;SDS011;33605;48.822;8.796;2022-12-26T00:15:02;3.80;;;3.17;;
47844;SDS011;33605;48.822;8.796;2022-12-26T00:17:28;3.90;;;3.50;;
47844;SDS011;33605;48.822;8.796;2022-12-26T00:19:54;5.20;;;3.90;;
47844;SDS011;33605;48.822;8.796;2022-12-26T00:22:20;5.20;;;3.70;;
47844;SDS011;33605;48.822;8.796;2022-12-26T00:24:46;4.00;;;3.60;;
47844;SDS011;33605;48.822;8.796;2022-12-26T00:27:11;4.93;;;3.87;;
47844;SDS011;33605;48.822;8.796;2022-12-26T00:29:38;4.43;;;3.43;;
47844;SDS011;33605;48.822;8.796;2022-12-26T00:32:03;3.93;;;3.53;;
47844;SDS011;33605;48.822;8.796;2022-12-26T00:34:29;3.80;;;3.43;;
47844;SDS011;33605;48.822;8.796;2022-12-26T00:36:54;3.97;;;3.57;;
47844;SDS011;33605;48.822;8.796;2022-12-26T00:39:20;10.23;;;4.30;;
47844;SDS011;33605;48.822;8.796;2022-12-26T00:41:46;4.77;;;4.00;;
47844;SDS011;33605;48.822;8.796;2022-12-26T00:44:11;3.93;;;3.53;;
47844;SDS011;33605;48.822;8.796;2022-12-26T00:46:37;6.63;;;3.10;;
47844;SDS011;33605;48.822;8.796;2022-12-26T00:49:02;4.40;;;3.70;;
47844;SDS011;33605;48.822;8.796;2022-12-26T00:51:28;4.80;;;3.50;;
47844;SDS011;33605;48.822;8.796;2022-12-26T00:53:54;3.90;;;3.53;;
47844;SDS011;33605;48.822;8.796;2022-12-26T00:56:20;3.97;;;3.33;;
47844;SDS011;33605;48.822;8.796;2022-12-26T00:58:46;3.00;;;2.70;;
47844;SDS011;33605;48.822;8.796;2022-12-26T01:01:13;5.57;;;3.10;;
47844;SDS011;33605;48.822;8.796;2022-12-26T01:03:44;4.43;;;3.10;;
47844;SDS011;33605;48.822;8.796;2022-12-26T01:06:10;4.87;;;3.00;;
47844;SDS011;33605;48.822;8.796;2022-12-26T01:08:36;3.50;;;3.20;;
47844;SDS011;33605;48.822;8.796;2022-12-26T01:11:03;3.40;;;3.10;;
47844;SDS011;33605;48.822;8.796;2022-12-26T01:13:30;3.97;;;3.57;;
47844;SDS011;33605;48.822;8.796;2022-12-26T01:15:56;3.70;;;3.30;;
47844;SDS011;33605;48.822;8.796;2022-12-26T01:18:22;7.80;;;3.60;;
47844;SDS011;33605;48.822;8.796;2022-12-26T01:20:47;3.40;;;3.10;;
47844;SDS011;33605;48.822;8.796;2022-12-26T01:23:13;4.60;;;3.30;;
47844;SDS011;33605;48.822;8.796;2022-12-26T01:25:39;4.53;;;2.90;;
47844;SDS011;33605;48.822;8.796;2022-12-26T01:28:05;3.60;;;3.30;;
47844;SDS011;33605;48.822;8.796;2022-12-26T01:30:31;3.00;;;2.70;;
47844;SDS011;33605;48.822;8.796;2022-12-26T01:32:56;4.17;;;3.53;;
47844;SDS011;33605;48.822;8.796;2022-12-26T01:35:22;3.33;;;3.03;;
47844;SDS011;33605;48.822;8.796;2022-12-26T01:37:48;3.73;;;3.10;;
47844;SDS011;33605;48.822;8.796;2022-12-26T01:40:14;3.47;;;3.17;;
47844;SDS011;33605;48.822;8.796;2022-12-26T01:42:40;3.53;;;3.23;;
47844;SDS011;33605;48.822;8.796;2022-12-26T01:45:16;3.30;;;3.10;;
47844;SDS011;33605;48.822;8.796;2022-12-26T01:48:04;3.13;;;2.60;;
47844;SDS011;33605;48.822;8.796;2022-12-26T01:50:54;4.20;;;3.33;;
47844;SDS011;33605;48.822;8.796;2022-12-26T01:53:37;3.20;;;2.90;;
47844;SDS011;33605;48.822;8.796;2022-12-26T01:58:45;3.47;;;3.03;;
47844;SDS011;33605;48.822;8.796;2022-12-26T02:01:17;4.20;;;3.03;;
47844;SDS011;33605;48.822;8.796;2022-12-26T02:03:44;3.63;;;3.33;;
47844;SDS011;33605;48.822;8.796;2022-12-26T02:06:29;3.50;;;3.20;;
47844;SDS011;33605;48.822;8.796;2022-12-26T02:08:55;3.60;;;2.73;;
47844;SDS011;33605;48.822;8.796;2022-12-26T02:13:49;3.10;;;2.80;;
47844;SDS011;33605;48.822;8.796;2022-12-26T02:16:15;6.50;;;3.33;;
47844;SDS011;33605;48.822;8.796;2022-12-26T02:18:42;3.13;;;2.83;;
47844;SDS011;33605;48.822;8.796;2022-12-26T02:21:11;3.07;;;2.77;;
47844;SDS011;33605;48.822;8.796;2022-12-26T02:26:23;3.47;;;3.10;;
47844;SDS011;33605;48.822;8.796;2022-12-26T02:29:16;3.53;;;2.90;;
47844;SDS011;33605;48.822;8.796;2022-12-26T02:34:29;4.63;;;3.07;;
47844;SDS011;33605;48.822;8.796;2022-12-26T02:39:44;3.43;;;3.13;;
47844;SDS011;33605;48.822;8.796;2022-12-26T02:48:51;4.53;;;3.40;;
47844;SDS011;33605;48.822;8.796;2022-12-26T02:51:30;3.60;;;3.30;;
47844;SDS011;33605;48.822;8.796;2022-12-26T02:54:27;4.30;;;3.50;;
47844;SDS011;33605;48.822;8.796;2022-12-26T02:57:24;4.53;;;3.13;;
47844;SDS011;33605;48.822;8.796;2022-12-26T03:00:16;3.50;;;3.20;;
47844;SDS011;33605;48.822;8.796;2022-12-26T03:03:04;3.30;;;2.90;;
47844;SDS011;33605;48.822;8.796;2022-12-26T03:08:49;3.30;;;3.00;;
47844;SDS011;33605;48.822;8.796;2022-12-26T03:11:43;3.63;;;3.30;;
47844;SDS011;33605;48.822;8.796;2022-12-26T03:14:34;4.07;;;3.47;;
47844;SDS011;33605;48.822;8.796;2022-12-26T03:17:23;3.33;;;3.03;;
47844;SDS011;33605;48.822;8.796;2022-12-26T03:20:05;3.13;;;2.67;;
47844;SDS011;33605;48.822;8.796;2022-12-26T03:22:37;3.77;;;3.37;;
47844;SDS011;33605;48.822;8.796;2022-12-26T03:25:09;3.67;;;3.10;;
47844;SDS011;33605;48.822;8.796;2022-12-26T03:27:56;4.60;;;3.60;;
47844;SDS011;33605;48.822;8.796;2022-12-26T03:30:21;3.30;;;3.00;;
47844;SDS011;33605;48.822;8.796;2022-12-26T03:33:18;5.50;;;4.37;;
47844;SDS011;33605;48.822;8.796;2022-12-26T03:36:03;3.10;;;2.83;;
47844;SDS011;33605;48.822;8.796;2022-12-26T03:38:33;3.10;;;2.80;;
47844;SDS011;33605;48.822;8.796;2022-12-26T03:41:26;3.20;;;2.90;;
47844;SDS011;33605;48.822;8.796;2022-12-26T03:44:23;4.13;;;3.00;;
47844;SDS011;33605;48.822;8.796;2022-12-26T03:47:40;3.30;;;2.90;;
47844;SDS011;33605;48.822;8.796;2022-12-26T03:50:39;3.20;;;3.00;;
47844;SDS011;33605;48.822;8.796;2022-12-26T03:53:29;3.53;;;3.23;;
47844;SDS011;33605;48.822;8.796;2022-12-26T03:56:32;4.67;;;3.57;;
47844;SDS011;33605;48.822;8.796;2022-12-26T03:59:35;5.70;;;3.10;;
47844;SDS011;33605;48.822;8.796;2022-12-26T04:02:25;4.53;;;3.10;;
47844;SDS011;33605;48.822;8.796;2022-12-26T04:05:12;2.93;;;2.70;;
47844;SDS011;33605;48.822;8.796;2022-12-26T04:07:58;3.87;;;3.30;;
47844;SDS011;33605;48.822;8.796;2022-12-26T04:10:52;2.93;;;2.60;;
47844;SDS011;33605;48.822;8.796;2022-12-26T04:13:44;3.50;;;3.00;;
47844;SDS011;33605;48.822;8.796;2022-12-26T04:17:09;4.73;;;3.90;;
47844;SDS011;33605;48.822;8.796;2022-12-26T04:22:29;3.87;;;3.37;;
47844;SDS011;33605;48.822;8.796;2022-12-26T04:25:23;3.10;;;2.80;;
47844;SDS011;33605;48.822;8.796;2022-12-26T04:28:11;3.83;;;3.17;;
47844;SDS011;33605;48.822;8.796;2022-12-26T04:31:01;3.20;;;2.90;;
47844;SDS011;33605;48.822;8.796;2022-12-26T04:33:59;5.30;;;3.23;;
47844;SDS011;33605;48.822;8.796;2022-12-26T04:36:52;3.40;;;3.10;;
47844;SDS011;33605;48.822;8.796;2022-12-26T04:39:41;3.20;;;2.90;;
47844;SDS011;33605;48.822;8.796;2022-12-26T04:42:30;3.93;;;3.53;;
47844;SDS011;33605;48.822;8.796;2022-12-26T04:45:16;3.27;;;2.97;;
47844;SDS011;33605;48.822;8.796;2022-12-26T04:47:44;5.20;;;3.50;;
47844;SDS011;33605;48.822;8.796;2022-12-26T04:50:29;3.60;;;3.20;;
47844;SDS011;33605;48.822;8.796;2022-12-26T04:52:55;3.10;;;2.80;;
47844;SDS011;33605;48.822;8.796;2022-12-26T04:55:24;3.30;;;3.00;;
47844;SDS011;33605;48.822;8.796;2022-12-26T04:57:51;3.20;;;2.87;;
47844;SDS011;33605;48.822;8.796;2022-12-26T05:00:19;3.00;;;2.67;;
47844;SDS011;33605;48.822;8.796;2022-12-26T05:02:47;5.17;;;2.70;;
47844;SDS011;33605;48.822;8.796;2022-12-26T05:05:33;3.33;;;3.13;;
47844;SDS011;33605;48.822;8.796;2022-12-26T05:08:25;2.80;;;2.60;;
47844;SDS011;33605;48.822;8.796;2022-12-26T05:11:15;5.33;;;3.40;;
47844;SDS011;33605;48.822;8.796;2022-12-26T05:13:40;3.50;;;3.20;;
47844;SDS011;33605;48.822;8.796;2022-12-26T05:16:06;3.53;;;3.20;;
47844;SDS011;33605;48.822;8.796;2022-12-26T05:18:51;3.40;;;3.07;;
47844;SDS011;33605;48.822;8.796;2022-12-26T05:21:35;4.10;;;3.17;;
47844;SDS011;33605;48.822;8.796;2022-12-26T05:24:19;3.50;;;3.20;;
47844;SDS011;33605;48.822;8.796;2022-12-26T05:27:04;3.03;;;2.73;;
47844;SDS011;33605;48.822;8.796;2022-12-26T05:29:50;3.80;;;2.83;;
47844;SDS011;33605;48.822;8.796;2022-12-26T05:32:16;4.60;;;4.20;;
47844;SDS011;33605;48.822;8.796;2022-12-26T05:35:00;3.70;;;3.40;;
47844;SDS011;33605;48.822;8.796;2022-12-26T05:37:26;3.80;;;3.27;;
47844;SDS011;33605;48.822;8.796;2022-12-26T05:39:51;3.30;;;3.00;;
47844;SDS011;33605;48.822;8.796;2022-12-26T05:42:17;4.70;;;3.47;;
47844;SDS011;33605;48.822;8.796;2022-12-26T05:44:42;7.20;;;5.07;;
47844;SDS011;33605;48.822;8.796;2022-12-26T05:47:08;11.70;;;7.70;;
47844;SDS011;33605;48.822;8.796;2022-12-26T05:49:34;5.23;;;4.37;;
47844;SDS011;33605;48.822;8.796;2022-12-26T05:51:59;4.50;;;4.10;;
47844;SDS011;33605;48.822;8.796;2022-12-26T05:54:25;3.03;;;2.73;;
47844;SDS011;33605;48.822;8.796;2022-12-26T05:56:52;3.33;;;3.03;;
47844;SDS011;33605;48.822;8.796;2022-12-26T05:59:17;3.70;;;3.20;;
47844;SDS011;33605;48.822;8.796;2022-12-26T06:01:43;3.20;;;2.67;;
47844;SDS011;33605;48.822;8.796;2022-12-26T06:04:08;2.73;;;2.37;;
47844;SDS011;33605;48.822;8.796;2022-12-26T06:06:34;2.60;;;2.40;;
47844;SDS011;33605;48.822;8.796;2022-12-26T06:08:59;2.90;;;2.70;;
47844;SDS011;33605;48.822;8.796;2022-12-26T06:11:25;2.97;;;2.67;;
47844;SDS011;33605;48.822;8.796;2022-12-26T06:13:51;4.27;;;3.30;;
47844;SDS011;33605;48.822;8.796;2022-12-26T06:16:18;2.60;;;2.40;;
47844;SDS011;33605;48.822;8.796;2022-12-26T06:18:44;3.43;;;3.13;;
47844;SDS011;33605;48.822;8.796;2022-12-26T06:21:12;3.30;;;2.83;;
47844;SDS011;33605;48.822;8.796;2022-12-26T06:23:40;3.97;;;2.90;;
47844;SDS011;33605;48.822;8.796;2022-12-26T06:26:05;3.27;;;2.97;;
47844;SDS011;33605;48.822;8.796;2022-12-26T06:28:33;3.40;;;2.33;;
47844;SDS011;33605;48.822;8.796;2022-12-26T06:31:07;2.57;;;2.37;;
47844;SDS011;33605;48.822;8.796;2022-12-26T06:33:34;2.93;;;2.63;;
47844;SDS011;33605;48.822;8.796;2022-12-26T06:36:07;4.27;;;2.60;;
47844;SDS011;33605;48.822;8.796;2022-12-26T06:38:35;5.13;;;3.17;;
47844;SDS011;33605;48.822;8.796;2022-12-26T06:41:05;6.13;;;2.80;;
47844;SDS011;33605;48.822;8.796;2022-12-26T06:43:32;3.70;;;3.20;;
47844;SDS011;33605;48.822;8.796;2022-12-26T06:45:58;3.83;;;3.33;;
47844;SDS011;33605;48.822;8.796;2022-12-26T06:48:25;3.10;;;2.80;;
47844;SDS011;33605;48.822;8.796;2022-12-26T06:50:51;3.23;;;2.93;;
47844;SDS011;33605;48.822;8.796;2022-12-26T06:53:20;3.33;;;2.50;;
47844;SDS011;33605;48.822;8.796;2022-12-26T06:55:47;2.77;;;2.57;;
47844;SDS011;33605;48.822;8.796;2022-12-26T06:58:13;3.53;;;2.43;;
47844;SDS011;33605;48.822;8.796;2022-12-26T07:00:39;3.87;;;2.80;;
47844;SDS011;33605;48.822;8.796;2022-12-26T07:03:04;4.23;;;2.93;;
47844;SDS011;33605;48.822;8.796;2022-12-26T07:05:30;5.90;;;2.70;;
47844;SDS011;33605;48.822;8.796;2022-12-26T07:07:55;3.30;;;2.60;;
47844;SDS011;33605;48.822;8.796;2022-12-26T07:10:21;2.93;;;2.73;;
47844;SDS011;33605;48.822;8.796;2022-12-26T07:12:47;3.50;;;2.73;;
47844;SDS011;33605;48.822;8.796;2022-12-26T07:15:13;2.60;;;2.40;;
47844;SDS011;33605;48.822;8.796;2022-12-26T07:17:39;3.13;;;2.80;;
47844;SDS011;33605;48.822;8.796;2022-12-26T07:20:05;3.30;;;2.93;;
47844;SDS011;33605;48.822;8.796;2022-12-26T07:22:32;3.20;;;2.90;;
47844;SDS011;33605;48.822;8.796;2022-12-26T07:24:58;2.93;;;2.73;;
47844;SDS011;33605;48.822;8.796;2022-12-26T07:27:26;3.17;;;2.87;;
47844;SDS011;33605;48.822;8.796;2022-12-26T07:29:52;3.63;;;2.63;;
47844;SDS011;33605;48.822;8.796;2022-12-26T07:32:17;3.47;;;3.17;;
47844;SDS011;33605;48.822;8.796;2022-12-26T07:34:43;3.20;;;2.90;;
47844;SDS011;33605;48.822;8.796;2022-12-26T07:37:09;2.93;;;2.63;;
47844;SDS011;33605;48.822;8.796;2022-12-26T07:39:34;2.97;;;2.73;;
47844;SDS011;33605;48.822;8.796;2022-12-26T07:42:01;3.23;;;2.93;;
47844;SDS011;33605;48.822;8.796;2022-12-26T07:44:28;4.00;;;3.30;;
47844;SDS011;33605;48.822;8.796;2022-12-26T07:46:57;3.50;;;3.20;;
47844;SDS011;33605;48.822;8.796;2022-12-26T07:49:23;4.30;;;3.60;;
47844;SDS011;33605;48.822;8.796;2022-12-26T07:51:49;4.40;;;4.00;;
47844;SDS011;33605;48.822;8.796;2022-12-26T07:54:16;5.23;;;4.30;;
47844;SDS011;33605;48.822;8.796;2022-12-26T07:56:42;4.10;;;3.70;;
47844;SDS011;33605;48.822;8.796;2022-12-26T07:59:12;5.10;;;4.63;;
47844;SDS011;33605;48.822;8.796;2022-12-26T08:01:42;5.10;;;4.60;;
47844;SDS011;33605;48.822;8.796;2022-12-26T08:04:08;4.90;;;4.40;;
47844;SDS011;33605;48.822;8.796;2022-12-26T08:06:35;5.33;;;4.83;;
47844;SDS011;33605;48.822;8.796;2022-12-26T08:09:00;5.80;;;4.70;;
47844;SDS011;33605;48.822;8.796;2022-12-26T08:11:26;5.47;;;4.97;;
47844;SDS011;33605;48.822;8.796;2022-12-26T08:13:56;5.87;;;5.03;;
47844;SDS011;33605;48.822;8.796;2022-12-26T08:16:21;5.70;;;4.60;;
47844;SDS011;33605;48.822;8.796;2022-12-26T08:18:47;6.00;;;5.40;;
47844;SDS011;33605;48.822;8.796;2022-12-26T08:21:12;5.93;;;3.97;;
47844;SDS011;33605;48.822;8.796;2022-12-26T08:23:38;5.23;;;4.50;;
47844;SDS011;33605;48.822;8.796;2022-12-26T08:26:07;5.93;;;4.60;;
47844;SDS011;33605;48.822;8.796;2022-12-26T08:28:34;7.00;;;4.37;;
47844;SDS011;33605;48.822;8.796;2022-12-26T08:31:04;7.43;;;5.20;;
47844;SDS011;33605;48.822;8.796;2022-12-26T08:33:34;7.53;;;5.17;;
47844;SDS011;33605;48.822;8.796;2022-12-26T08:36:03;5.73;;;4.60;;
47844;SDS011;33605;48.822;8.796;2022-12-26T08:38:30;5.70;;;4.50;;
47844;SDS011;33605;48.822;8.796;2022-12-26T08:40:55;4.73;;;4.07;;
47844;SDS011;33605;48.822;8.796;2022-12-26T08:43:22;5.67;;;4.70;;
47844;SDS011;33605;48.822;8.796;2022-12-26T08:45:58;6.80;;;4.37;;
47844;SDS011;33605;48.822;8.796;2022-12-26T08:48:25;5.00;;;4.50;;
47844;SDS011;33605;48.822;8.796;2022-12-26T08:50:56;5.40;;;4.90;;
47844;SDS011;33605;48.822;8.796;2022-12-26T08:53:26;7.77;;;6.40;;
47844;SDS011;33605;48.822;8.796;2022-12-26T08:55:53;10.33;;;8.10;;
47844;SDS011;33605;48.822;8.796;2022-12-26T08:58:20;12.37;;;9.27;;
47844;SDS011;33605;48.822;8.796;2022-12-26T09:00:46;9.90;;;8.97;;
47844;SDS011;33605;48.822;8.796;2022-12-26T09:03:13;8.10;;;6.83;;
47844;SDS011;33605;48.822;8.796;2022-12-26T09:05:39;6.90;;;6.20;;
47844;SDS011;33605;48.822;8.796;2022-12-26T09:08:04;5.30;;;4.80;;
47844;SDS011;33605;48.822;8.796;2022-12-26T09:10:31;4.67;;;4.13;;
47844;SDS011;33605;48.822;8.796;2022-12-26T09:12:56;9.30;;;6.77;;
47844;SDS011;33605;48.822;8.796;2022-12-26T09:15:22;9.57;;;7.47;;
47844;SDS011;33605;48.822;8.796;2022-12-26T09:17:48;10.13;;;7.47;;
47844;SDS011;33605;48.822;8.796;2022-12-26T09:20:14;11.53;;;9.33;;
47844;SDS011;33605;48.822;8.796;2022-12-26T09:22:39;14.00;;;11.27;;
47844;SDS011;33605;48.822;8.796;2022-12-26T09:25:14;13.97;;;10.93;;
47844;SDS011;33605;48.822;8.796;2022-12-26T09:27:44;19.37;;;13.30;;
47844;SDS011;33605;48.822;8.796;2022-12-26T09:30:10;16.70;;;10.40;;
47844;SDS011;33605;48.822;8.796;2022-12-26T09:32:36;14.93;;;11.10;;
47844;SDS011;33605;48.822;8.796;2022-12-26T09:35:02;13.00;;;9.23;;
47844;SDS011;33605;48.822;8.796;2022-12-26T09:37:31;5.13;;;4.17;;
47844;SDS011;33605;48.822;8.796;2022-12-26T09:39:56;5.93;;;3.00;;
47844;SDS011;33605;48.822;8.796;2022-12-26T09:42:32;2.47;;;2.27;;
47844;SDS011;33605;48.822;8.796;2022-12-26T09:45:10;2.30;;;2.10;;
47844;SDS011;33605;48.822;8.796;2022-12-26T09:48:06;2.40;;;2.20;;
47844;SDS011;33605;48.822;8.796;2022-12-26T09:50:58;2.87;;;2.00;;
47844;SDS011;33605;48.822;8.796;2022-12-26T09:53:31;1.90;;;1.80;;
47844;SDS011;33605;48.822;8.796;2022-12-26T10:01:28;2.43;;;2.23;;
47844;SDS011;33605;48.822;8.796;2022-12-26T10:03:59;3.97;;;3.67;;
47844;SDS011;33605;48.822;8.796;2022-12-26T10:06:28;2.00;;;1.90;;
47844;SDS011;33605;48.822;8.796;2022-12-26T10:14:34;1.70;;;1.53;;
47844;SDS011;33605;48.822;8.796;2022-12-26T10:17:27;2.23;;;1.43;;
47844;SDS011;33605;48.822;8.796;2022-12-26T10:22:50;1.50;;;1.40;;
47844;SDS011;33605;48.822;8.796;2022-12-26T10:25:29;2.63;;;1.30;;
47844;SDS011;33605;48.822;8.796;2022-12-26T10:28:07;1.67;;;1.57;;
47844;SDS011;33605;48.822;8.796;2022-12-26T10:30:40;1.40;;;1.30;;
47844;SDS011;33605;48.822;8.796;2022-12-26T10:33:11;13.03;;;2.13;;
47844;SDS011;33605;48.822;8.796;2022-12-26T10:35:42;1.30;;;1.20;;
47844;SDS011;33605;48.822;8.796;2022-12-26T10:38:11;1.60;;;1.50;;
47844;SDS011;33605;48.822;8.796;2022-12-26T10:40:53;1.77;;;1.60;;
47844;SDS011;33605;48.822;8.796;2022-12-26T10:43:31;4.00;;;1.83;;
47844;SDS011;33605;48.822;8.796;2022-12-26T10:48:33;3.20;;;2.00;;
47844;SDS011;33605;48.822;8.796;2022-12-26T10:50:58;2.33;;;1.70;;
47844;SDS011;33605;48.822;8.796;2022-12-26T10:53:27;2.17;;;1.73;;
47844;SDS011;33605;48.822;8.796;2022-12-26T10:55:53;1.60;;;1.50;;
47844;SDS011;33605;48.822;8.796;2022-12-26T10:58:23;1.30;;;1.20;;
47844;SDS011;33605;48.822;8.796;2022-12-26T11:00:53;1.30;;;1.20;;
47844;SDS011;33605;48.822;8.796;2022-12-26T11:03:19;1.40;;;1.20;;
47844;SDS011;33605;48.822;8.796;2022-12-26T11:05:46;1.67;;;1.50;;
47844;SDS011;33605;48.822;8.796;2022-12-26T11:08:15;1.40;;;1.30;;
47844;SDS011;33605;48.822;8.796;2022-12-26T11:11:07;1.73;;;1.50;;
47844;SDS011;33605;48.822;8.796;2022-12-26T11:13:38;1.50;;;1.40;;
47844;SDS011;33605;48.822;8.796;2022-12-26T11:16:13;1.40;;;1.30;;
47844;SDS011;33605;48.822;8.796;2022-12-26T11:18:53;1.30;;;1.20;;
47844;SDS011;33605;48.822;8.796;2022-12-26T11:21:20;1.23;;;1.10;;
47844;SDS011;33605;48.822;8.796;2022-12-26T11:26:31;1.60;;;1.50;;
47844;SDS011;33605;48.822;8.796;2022-12-26T11:31:42;1.37;;;1.27;;
47844;SDS011;33605;48.822;8.796;2022-12-26T11:34:16;2.27;;;1.70;;
47844;SDS011;33605;48.822;8.796;2022-12-26T11:36:45;1.60;;;1.50;;
47844;SDS011;33605;48.822;8.796;2022-12-26T11:39:18;2.90;;;2.10;;
47844;SDS011;33605;48.822;8.796;2022-12-26T11:41:49;2.97;;;1.53;;
47844;SDS011;33605;48.822;8.796;2022-12-26T11:44:20;2.53;;;2.33;;
47844;SDS011;33605;48.822;8.796;2022-12-26T11:47:08;1.90;;;1.80;;
47844;SDS011;33605;48.822;8.796;2022-12-26T11:52:45;1.40;;;1.30;;
47844;SDS011;33605;48.822;8.796;2022-12-26T11:55:30;1.40;;;1.20;;
47844;SDS011;33605;48.822;8.796;2022-12-26T12:00:34;1.87;;;1.77;;
47844;SDS011;33605;48.822;8.796;2022-12-26T12:03:15;1.60;;;1.50;;
47844;SDS011;33605;48.822;8.796;2022-12-26T12:08:18;2.00;;;1.80;;
47844;SDS011;33605;48.822;8.796;2022-12-26T12:13:41;3.53;;;1.50;;
47844;SDS011;33605;48.822;8.796;2022-12-26T12:19:21;1.90;;;1.80;;
47844;SDS011;33605;48.822;8.796;2022-12-26T12:27:00;2.00;;;1.60;;
47844;SDS011;33605;48.822;8.796;2022-12-26T12:29:46;1.97;;;1.80;;
47844;SDS011;33605;48.822;8.796;2022-12-26T12:48:22;1.40;;;1.30;;
47844;SDS011;33605;48.822;8.796;2022-12-26T12:50:57;2.00;;;1.60;;
47844;SDS011;33605;48.822;8.796;2022-12-26T12:56:14;1.77;;;1.37;;
47844;SDS011;33605;48.822;8.796;2022-12-26T13:01:49;1.40;;;1.30;;
47844;SDS011;33605;48.822;8.796;2022-12-26T13:04:34;1.57;;;1.47;;
47844;SDS011;33605;48.822;8.796;2022-12-26T13:07:05;1.77;;;1.53;;
47844;SDS011;33605;48.822;8.796;2022-12-26T13:09:49;3.30;;;3.00;;
47844;SDS011;33605;48.822;8.796;2022-12-26T13:12:23;4.20;;;2.00;;
47844;SDS011;33605;48.822;8.796;2022-12-26T13:15:04;2.00;;;1.90;;
47844;SDS011;33605;48.822;8.796;2022-12-26T13:20:35;4.47;;;4.10;;
47844;SDS011;33605;48.822;8.796;2022-12-26T13:24:04;4.37;;;1.43;;
47844;SDS011;33605;48.822;8.796;2022-12-26T13:26:24;3.47;;;3.27;;
47844;SDS011;33605;48.822;8.796;2022-12-26T13:31:56;1.93;;;1.67;;
47844;SDS011;33605;48.822;8.796;2022-12-26T13:34:22;3.87;;;3.57;;
47844;SDS011;33605;48.822;8.796;2022-12-26T13:36:50;2.10;;;2.00;;
47844;SDS011;33605;48.822;8.796;2022-12-26T13:41:50;2.93;;;2.73;;
47844;SDS011;33605;48.822;8.796;2022-12-26T13:44:37;5.17;;;1.77;;
47844;SDS011;33605;48.822;8.796;2022-12-26T13:47:03;2.63;;;1.87;;
47844;SDS011;33605;48.822;8.796;2022-12-26T13:49:31;1.60;;;1.50;;
47844;SDS011;33605;48.822;8.796;2022-12-26T14:05:00;4.10;;;3.30;;
47844;SDS011;33605;48.822;8.796;2022-12-26T14:07:33;2.50;;;2.30;;
47844;SDS011;33605;48.822;8.796;2022-12-26T14:10:03;1.53;;;1.43;;
47844;SDS011;33605;48.822;8.796;2022-12-26T14:15:27;2.47;;;2.27;;
47844;SDS011;33605;48.822;8.796;2022-12-26T14:23:11;2.30;;;1.90;;
47844;SDS011;33605;48.822;8.796;2022-12-26T14:25:46;2.07;;;1.87;;
47844;SDS011;33605;48.822;8.796;2022-12-26T14:30:56;2.50;;;2.30;;
47844;SDS011;33605;48.822;8.796;2022-12-26T14:41:04;2.87;;;2.67;;
47844;SDS011;33605;48.822;8.796;2022-12-26T14:43:51;4.07;;;3.40;;
47844;SDS011;33605;48.822;8.796;2022-12-26T14:48:56;1.70;;;1.60;;
47844;SDS011;33605;48.822;8.796;2022-12-26T14:51:27;1.93;;;1.80;;
47844;SDS011;33605;48.822;8.796;2022-12-26T14:56:55;2.00;;;1.80;;
47844;SDS011;33605;48.822;8.796;2022-12-26T14:59:29;1.60;;;1.50;;
47844;SDS011;33605;48.822;8.796;2022-12-26T15:02:00;1.90;;;1.77;;
47844;SDS011;33605;48.822;8.796;2022-12-26T15:04:32;15.63;;;7.17;;
47844;SDS011;33605;48.822;8.796;2022-12-26T15:07:13;23.23;;;11.17;;
47844;SDS011;33605;48.822;8.796;2022-12-26T15:17:41;3.40;;;2.50;;
47844;SDS011;33605;48.822;8.796;2022-12-26T15:20:17;1.93;;;1.73;;
47844;SDS011;33605;48.822;8.796;2022-12-26T15:25:53;2.10;;;1.80;;
47844;SDS011;33605;48.822;8.796;2022-12-26T15:37:07;2.43;;;1.50;;
47844;SDS011;33605;48.822;8.796;2022-12-26T15:39:58;1.50;;;1.40;;
47844;SDS011;33605;48.822;8.796;2022-12-26T15:45:26;1.50;;;1.40;;
47844;SDS011;33605;48.822;8.796;2022-12-26T15:48:15;30.70;;;13.57;;
47844;SDS011;33605;48.822;8.796;2022-12-26T15:51:12;6.23;;;3.90;;
47844;SDS011;33605;48.822;8.796;2022-12-26T15:59:06;3.90;;;3.10;;
47844;SDS011;33605;48.822;8.796;2022-12-26T16:01:51;2.40;;;2.20;;
47844;SDS011;33605;48.822;8.796;2022-12-26T16:04:26;2.63;;;2.27;;
47844;SDS011;33605;48.822;8.796;2022-12-26T16:07:05;1.60;;;1.50;;
47844;SDS011;33605;48.822;8.796;2022-12-26T16:09:38;4.73;;;1.43;;
47844;SDS011;33605;48.822;8.796;2022-12-26T16:12:17;2.47;;;2.10;;
47844;SDS011;33605;48.822;8.796;2022-12-26T16:15:27;3.70;;;3.40;;
47844;SDS011;33605;48.822;8.796;2022-12-26T16:17:48;2.70;;;2.50;;
47844;SDS011;33605;48.822;8.796;2022-12-26T16:20:32;6.83;;;5.90;;
47844;SDS011;33605;48.822;8.796;2022-12-26T16:23:17;3.63;;;2.67;;
47844;SDS011;33605;48.822;8.796;2022-12-26T16:25:47;10.50;;;8.37;;
47844;SDS011;33605;48.822;8.796;2022-12-26T16:28:14;5.07;;;4.50;;
47844;SDS011;33605;48.822;8.796;2022-12-26T16:30:48;3.00;;;2.70;;
47844;SDS011;33605;48.822;8.796;2022-12-26T16:33:14;3.70;;;2.70;;
47844;SDS011;33605;48.822;8.796;2022-12-26T16:35:40;2.57;;;2.37;;
47844;SDS011;33605;48.822;8.796;2022-12-26T16:38:14;2.00;;;1.60;;
47844;SDS011;33605;48.822;8.796;2022-12-26T16:40:49;5.00;;;3.60;;
47844;SDS011;33605;48.822;8.796;2022-12-26T16:43:23;3.00;;;2.70;;
47844;SDS011;33605;48.822;8.796;2022-12-26T16:45:51;3.27;;;2.30;;
47844;SDS011;33605;48.822;8.796;2022-12-26T16:48:19;1.63;;;1.53;;
47844;SDS011;33605;48.822;8.796;2022-12-26T16:58:45;2.43;;;2.23;;
47844;SDS011;33605;48.822;8.796;2022-12-26T17:01:14;2.10;;;1.90;;
47844;SDS011;33605;48.822;8.796;2022-12-26T17:03:48;3.87;;;2.50;;
47844;SDS011;33605;48.822;8.796;2022-12-26T17:06:24;2.90;;;2.30;;
47844;SDS011;33605;48.822;8.796;2022-12-26T17:08:52;2.70;;;2.50;;
47844;SDS011;33605;48.822;8.796;2022-12-26T17:11:26;3.43;;;2.23;;
47844;SDS011;33605;48.822;8.796;2022-12-26T17:13:55;2.13;;;1.60;;
47844;SDS011;33605;48.822;8.796;2022-12-26T17:16:22;2.07;;;1.67;;
47844;SDS011;33605;48.822;8.796;2022-12-26T17:18:51;2.07;;;1.87;;
47844;SDS011;33605;48.822;8.796;2022-12-26T17:26:36;1.50;;;1.40;;
47844;SDS011;33605;48.822;8.796;2022-12-26T17:29:03;1.60;;;1.50;;
47844;SDS011;33605;48.822;8.796;2022-12-26T17:31:42;2.53;;;2.33;;
47844;SDS011;33605;48.822;8.796;2022-12-26T17:34:18;2.17;;;2.07;;
47844;SDS011;33605;48.822;8.796;2022-12-26T17:36:48;2.00;;;1.90;;
47844;SDS011;33605;48.822;8.796;2022-12-26T17:39:19;1.33;;;1.23;;
47844;SDS011;33605;48.822;8.796;2022-12-26T17:41:48;15.13;;;10.10;;
47844;SDS011;33605;48.822;8.796;2022-12-26T17:44:32;6.00;;;3.00;;
47844;SDS011;33605;48.822;8.796;2022-12-26T17:47:24;2.90;;;2.60;;
47844;SDS011;33605;48.822;8.796;2022-12-26T17:49:54;3.30;;;1.97;;
47844;SDS011;33605;48.822;8.796;2022-12-26T17:52:22;2.10;;;1.73;;
47844;SDS011;33605;48.822;8.796;2022-12-26T17:54:51;2.90;;;1.80;;
47844;SDS011;33605;48.822;8.796;2022-12-26T17:57:18;2.73;;;2.47;;
47844;SDS011;33605;48.822;8.796;2022-12-26T17:59:49;2.57;;;1.83;;
47844;SDS011;33605;48.822;8.796;2022-12-26T18:02:16;3.90;;;2.47;;
47844;SDS011;33605;48.822;8.796;2022-12-26T18:04:42;3.70;;;2.50;;
47844;SDS011;33605;48.822;8.796;2022-12-26T18:07:13;4.20;;;3.00;;
47844;SDS011;33605;48.822;8.796;2022-12-26T18:09:48;1.50;;;1.40;;
47844;SDS011;33605;48.822;8.796;2022-12-26T18:12:14;1.70;;;1.10;;
47844;SDS011;33605;48.822;8.796;2022-12-26T18:14:41;1.00;;;0.90;;